Terminal Aerodrome Forecast
Issued by NWS Charleston, WV

Current Version | Previous Version | Text Only | Print | Product List | Glossary Off
Versions: 1 2 3 4 5 6 7 8 9 10 11 12 13 14 15 16 17 18 19 20 21 22 23

649
FTUS41 KRLX 241742
TAFBKW
TAF
KBKW 241742Z 2418/2518 13012G20KT P6SM OVC011
     FM242100 14013G20KT 4SM SHRA OVC015
     FM242200 14014G21KT 2SM SHRA OVC014
     FM250000 14014G24KT 4SM SHRA OVC013
     FM250500 14015G23KT 5SM SHRA OVC008
     FM250800 14013G19KT P6SM SHRA OVC011=

USA.gov is the U.S. government's official web portal to all federal, state and local government web resources and services.